Roll, Indiana
Current Conditions -  °F | °C
As of 2:53 AM on Sunday 26 Oct 2014 (Local Time) from KMIE Reporting Station
Clear Clear  
Wind Chill: 50°   Ceiling: Unl
Heat Index: 50°   Visibility: 10mi
Dew Point: 34°   Wind: 7mph
Humidity: 54%   Direction: 290°WNW
Pressure: 29.96"   Gusts: NA
Location:  40.4568°N, 85.3505°W
Report Text: KMIE 260653Z AUTO 29006KT 10SM CLR 10/01 A2996 RMK AO2 SLP139 T01000011
Loading
Personal Weather Stations






























Interactive Weather Map
Tropical Storm Tracking
New forecast layout! Learn more

10-Day Weather Forecast

Advertisements
Track Severe Weather on mobile